sensor_id;sensor_type;location;lat;lon;timestamp;pressure;altitude;pressure_sealevel;temperature;humidity
38612;BME280;24368;52.156;20.788;2023-04-15T00:02:37;99598.23;;;10.55;98.61
38612;BME280;24368;52.156;20.788;2023-04-15T00:07:38;99598.82;;;10.51;98.66
38612;BME280;24368;52.156;20.788;2023-04-15T00:12:40;99602.36;;;10.56;99.48
38612;BME280;24368;52.156;20.788;2023-04-15T00:17:41;99606.36;;;10.55;100.00
38612;BME280;24368;52.156;20.788;2023-04-15T00:22:42;99606.09;;;10.47;100.00
38612;BME280;24368;52.156;20.788;2023-04-15T00:27:43;99602.11;;;10.44;100.00
38612;BME280;24368;52.156;20.788;2023-04-15T00:32:44;99601.79;;;10.36;100.00
38612;BME280;24368;52.156;20.788;2023-04-15T00:37:46;99599.56;;;10.29;100.00
38612;BME280;24368;52.156;20.788;2023-04-15T00:42:47;99600.36;;;10.35;100.00
38612;BME280;24368;52.156;20.788;2023-04-15T00:47:49;99592.13;;;10.31;100.00
38612;BME280;24368;52.156;20.788;2023-04-15T00:52:51;99598.21;;;10.25;100.00
38612;BME280;24368;52.156;20.788;2023-04-15T00:57:52;99593.41;;;10.16;100.00
38612;BME280;24368;52.156;20.788;2023-04-15T01:02:53;99593.34;;;10.14;100.00
38612;BME280;24368;52.156;20.788;2023-04-15T01:07:54;99599.87;;;10.15;100.00
38612;BME280;24368;52.156;20.788;2023-04-15T01:12:56;99596.67;;;10.14;100.00
38612;BME280;24368;52.156;20.788;2023-04-15T01:17:58;99597.59;;;10.13;100.00
38612;BME280;24368;52.156;20.788;2023-04-15T01:23:00;99599.54;;;10.06;100.00
38612;BME280;24368;52.156;20.788;2023-04-15T01:28:01;99596.98;;;9.99;100.00
38612;BME280;24368;52.156;20.788;2023-04-15T01:33:03;99599.80;;;9.90;100.00
38612;BME280;24368;52.156;20.788;2023-04-15T01:38:07;99595.59;;;9.86;100.00
38612;BME280;24368;52.156;20.788;2023-04-15T01:43:09;99597.69;;;9.90;100.00
38612;BME280;24368;52.156;20.788;2023-04-15T01:48:10;99598.20;;;9.77;100.00
38612;BME280;24368;52.156;20.788;2023-04-15T01:53:12;99594.96;;;9.68;100.00
38612;BME280;24368;52.156;20.788;2023-04-15T01:58:13;99597.42;;;9.68;100.00
38612;BME280;24368;52.156;20.788;2023-04-15T02:03:15;99599.54;;;9.63;100.00
38612;BME280;24368;52.156;20.788;2023-04-15T02:08:16;99594.80;;;9.65;100.00
38612;BME280;24368;52.156;20.788;2023-04-15T02:13:17;99594.36;;;9.67;100.00
38612;BME280;24368;52.156;20.788;2023-04-15T02:18:19;99593.81;;;9.63;100.00
38612;BME280;24368;52.156;20.788;2023-04-15T02:23:20;99592.33;;;9.56;100.00
38612;BME280;24368;52.156;20.788;2023-04-15T02:28:21;99593.67;;;9.54;100.00
38612;BME280;24368;52.156;20.788;2023-04-15T02:33:22;99592.16;;;9.55;100.00
38612;BME280;24368;52.156;20.788;2023-04-15T02:38:23;99593.15;;;9.52;100.00
38612;BME280;24368;52.156;20.788;2023-04-15T02:43:25;99595.79;;;9.50;100.00
38612;BME280;24368;52.156;20.788;2023-04-15T02:48:26;99590.16;;;9.47;100.00
38612;BME280;24368;52.156;20.788;2023-04-15T02:53:27;99587.26;;;9.40;100.00
38612;BME280;24368;52.156;20.788;2023-04-15T02:58:28;99586.53;;;9.39;100.00
38612;BME280;24368;52.156;20.788;2023-04-15T03:03:29;99582.94;;;9.44;100.00
38612;BME280;24368;52.156;20.788;2023-04-15T03:08:30;99584.89;;;9.44;100.00
38612;BME280;24368;52.156;20.788;2023-04-15T03:13:32;99585.38;;;9.43;100.00
38612;BME280;24368;52.156;20.788;2023-04-15T03:18:33;99586.66;;;9.38;100.00
38612;BME280;24368;52.156;20.788;2023-04-15T03:23:34;99586.86;;;9.41;100.00
38612;BME280;24368;52.156;20.788;2023-04-15T03:28:36;99589.16;;;9.40;100.00
38612;BME280;24368;52.156;20.788;2023-04-15T03:33:37;99587.16;;;9.41;100.00
38612;BME280;24368;52.156;20.788;2023-04-15T03:38:38;99588.27;;;9.37;100.00
38612;BME280;24368;52.156;20.788;2023-04-15T03:43:39;99590.35;;;9.39;100.00
38612;BME280;24368;52.156;20.788;2023-04-15T03:48:41;99589.80;;;9.41;100.00
38612;BME280;24368;52.156;20.788;2023-04-15T03:53:42;99589.28;;;9.44;100.00
38612;BME280;24368;52.156;20.788;2023-04-15T03:58:43;99594.25;;;9.41;100.00
38612;BME280;24368;52.156;20.788;2023-04-15T04:03:44;99589.89;;;9.38;100.00
38612;BME280;24368;52.156;20.788;2023-04-15T04:08:46;99594.74;;;9.39;100.00
38612;BME280;24368;52.156;20.788;2023-04-15T04:13:51;99596.41;;;9.42;100.00
38612;BME280;24368;52.156;20.788;2023-04-15T04:18:52;99595.56;;;9.40;100.00
38612;BME280;24368;52.156;20.788;2023-04-15T04:23:53;99600.27;;;9.35;100.00
38612;BME280;24368;52.156;20.788;2023-04-15T04:28:54;99597.34;;;9.35;100.00
38612;BME280;24368;52.156;20.788;2023-04-15T04:33:57;99599.45;;;9.35;100.00
38612;BME280;24368;52.156;20.788;2023-04-15T04:38:59;99599.00;;;9.37;100.00
38612;BME280;24368;52.156;20.788;2023-04-15T04:44:01;99598.36;;;9.35;100.00
38612;BME280;24368;52.156;20.788;2023-04-15T04:49:02;99602.48;;;9.29;100.00
38612;BME280;24368;52.156;20.788;2023-04-15T04:54:03;99602.09;;;9.27;100.00
38612;BME280;24368;52.156;20.788;2023-04-15T04:59:04;99596.97;;;9.30;100.00
38612;BME280;24368;52.156;20.788;2023-04-15T05:04:06;99599.02;;;9.34;100.00
38612;BME280;24368;52.156;20.788;2023-04-15T05:09:08;99600.91;;;9.36;100.00
38612;BME280;24368;52.156;20.788;2023-04-15T05:14:09;99604.02;;;9.29;100.00
38612;BME280;24368;52.156;20.788;2023-04-15T05:19:10;99606.92;;;9.27;100.00
38612;BME280;24368;52.156;20.788;2023-04-15T05:24:11;99611.48;;;9.26;100.00
38612;BME280;24368;52.156;20.788;2023-04-15T05:29:13;99613.39;;;9.26;100.00
38612;BME280;24368;52.156;20.788;2023-04-15T05:34:14;99609.46;;;9.23;100.00
38612;BME280;24368;52.156;20.788;2023-04-15T05:39:16;99605.52;;;9.26;100.00
38612;BME280;24368;52.156;20.788;2023-04-15T05:44:17;99612.94;;;9.29;100.00
38612;BME280;24368;52.156;20.788;2023-04-15T05:49:19;99615.50;;;9.34;100.00
38612;BME280;24368;52.156;20.788;2023-04-15T05:54:20;99617.41;;;9.34;100.00
38612;BME280;24368;52.156;20.788;2023-04-15T05:59:23;99618.34;;;9.32;100.00
38612;BME280;24368;52.156;20.788;2023-04-15T06:04:24;99619.48;;;9.27;100.00
38612;BME280;24368;52.156;20.788;2023-04-15T06:09:25;99617.71;;;9.27;100.00
38612;BME280;24368;52.156;20.788;2023-04-15T06:14:27;99621.75;;;9.28;100.00
38612;BME280;24368;52.156;20.788;2023-04-15T06:19:28;99627.04;;;9.28;100.00
38612;BME280;24368;52.156;20.788;2023-04-15T06:24:29;99631.81;;;9.34;100.00
38612;BME280;24368;52.156;20.788;2023-04-15T06:29:31;99638.25;;;9.30;100.00
38612;BME280;24368;52.156;20.788;2023-04-15T06:34:32;99637.64;;;9.19;100.00
38612;BME280;24368;52.156;20.788;2023-04-15T06:39:33;99642.12;;;9.24;100.00
38612;BME280;24368;52.156;20.788;2023-04-15T06:44:35;99643.15;;;9.27;100.00
38612;BME280;24368;52.156;20.788;2023-04-15T06:49:37;99640.55;;;9.32;100.00
38612;BME280;24368;52.156;20.788;2023-04-15T06:54:38;99645.95;;;9.32;100.00
38612;BME280;24368;52.156;20.788;2023-04-15T06:59:39;99648.00;;;9.29;100.00
38612;BME280;24368;52.156;20.788;2023-04-15T07:04:41;99653.18;;;9.29;100.00
38612;BME280;24368;52.156;20.788;2023-04-15T07:09:42;99657.00;;;9.31;100.00
38612;BME280;24368;52.156;20.788;2023-04-15T07:14:44;99665.60;;;9.31;100.00
38612;BME280;24368;52.156;20.788;2023-04-15T07:19:45;99666.66;;;9.32;100.00
38612;BME280;24368;52.156;20.788;2023-04-15T07:24:47;99669.11;;;9.32;100.00
38612;BME280;24368;52.156;20.788;2023-04-15T07:29:48;99669.23;;;9.33;100.00
38612;BME280;24368;52.156;20.788;2023-04-15T07:34:51;99672.04;;;9.36;100.00
38612;BME280;24368;52.156;20.788;2023-04-15T07:39:53;99666.84;;;9.44;100.00
38612;BME280;24368;52.156;20.788;2023-04-15T07:44:58;99671.52;;;9.49;100.00
38612;BME280;24368;52.156;20.788;2023-04-15T07:49:59;99668.15;;;9.50;100.00
38612;BME280;24368;52.156;20.788;2023-04-15T07:55:02;99668.10;;;9.44;100.00
38612;BME280;24368;52.156;20.788;2023-04-15T08:00:04;99662.05;;;9.43;100.00
38612;BME280;24368;52.156;20.788;2023-04-15T08:05:08;99668.55;;;9.46;100.00
38612;BME280;24368;52.156;20.788;2023-04-15T08:10:10;99668.30;;;9.52;100.00
38612;BME280;24368;52.156;20.788;2023-04-15T08:15:12;99669.19;;;9.53;100.00
38612;BME280;24368;52.156;20.788;2023-04-15T08:20:14;99670.05;;;9.56;100.00
38612;BME280;24368;52.156;20.788;2023-04-15T08:25:15;99668.08;;;9.57;100.00
38612;BME280;24368;52.156;20.788;2023-04-15T08:30:16;99669.65;;;9.62;100.00
38612;BME280;24368;52.156;20.788;2023-04-15T08:35:18;99668.20;;;9.64;100.00
38612;BME280;24368;52.156;20.788;2023-04-15T08:40:21;99664.84;;;9.71;100.00
38612;BME280;24368;52.156;20.788;2023-04-15T08:45:25;99668.83;;;9.70;100.00
38612;BME280;24368;52.156;20.788;2023-04-15T08:50:28;99666.79;;;9.77;100.00
38612;BME280;24368;52.156;20.788;2023-04-15T08:55:32;99667.08;;;9.84;100.00
38612;BME280;24368;52.156;20.788;2023-04-15T09:00:36;99671.57;;;9.82;100.00
38612;BME280;24368;52.156;20.788;2023-04-15T09:05:38;99679.77;;;9.79;100.00
38612;BME280;24368;52.156;20.788;2023-04-15T09:10:39;99677.56;;;9.78;100.00
38612;BME280;24368;52.156;20.788;2023-04-15T09:15:41;99675.92;;;9.82;100.00
38612;BME280;24368;52.156;20.788;2023-04-15T09:20:43;99674.46;;;9.83;100.00
38612;BME280;24368;52.156;20.788;2023-04-15T09:25:44;99680.80;;;9.79;100.00
38612;BME280;24368;52.156;20.788;2023-04-15T09:30:46;99679.48;;;9.85;100.00
38612;BME280;24368;52.156;20.788;2023-04-15T09:36:02;99683.29;;;9.83;100.00
38612;BME280;24368;52.156;20.788;2023-04-15T09:41:16;99682.98;;;9.79;100.00
38612;BME280;24368;52.156;20.788;2023-04-15T09:46:39;99682.85;;;9.86;100.00
38612;BME280;24368;52.156;20.788;2023-04-15T09:51:41;99687.30;;;9.97;100.00
38612;BME280;24368;52.156;20.788;2023-04-15T09:56:42;99690.84;;;10.09;100.00
38612;BME280;24368;52.156;20.788;2023-04-15T10:01:45;99693.71;;;10.13;100.00
38612;BME280;24368;52.156;20.788;2023-04-15T10:06:46;99697.89;;;10.07;100.00
38612;BME280;24368;52.156;20.788;2023-04-15T10:11:50;99696.14;;;10.07;100.00
38612;BME280;24368;52.156;20.788;2023-04-15T10:16:55;99696.66;;;10.05;100.00
38612;BME280;24368;52.156;20.788;2023-04-15T10:21:59;99694.92;;;10.07;100.00
38612;BME280;24368;52.156;20.788;2023-04-15T10:27:02;99696.54;;;9.98;100.00
38612;BME280;24368;52.156;20.788;2023-04-15T10:32:04;99709.73;;;9.90;100.00
38612;BME280;24368;52.156;20.788;2023-04-15T10:37:08;99703.27;;;9.83;100.00
38612;BME280;24368;52.156;20.788;2023-04-15T10:42:15;99712.02;;;9.82;100.00
38612;BME280;24368;52.156;20.788;2023-04-15T10:47:19;99710.00;;;9.91;100.00
38612;BME280;24368;52.156;20.788;2023-04-15T10:52:26;99719.50;;;9.94;100.00
38612;BME280;24368;52.156;20.788;2023-04-15T10:57:34;99712.34;;;10.05;100.00
38612;BME280;24368;52.156;20.788;2023-04-15T11:08:00;99718.15;;;10.26;100.00
38612;BME280;24368;52.156;20.788;2023-04-15T11:13:23;99719.71;;;10.39;100.00
38612;BME280;24368;52.156;20.788;2023-04-15T11:18:28;99720.51;;;10.53;100.00
38612;BME280;24368;52.156;20.788;2023-04-15T11:23:39;99717.51;;;10.63;100.00
38612;BME280;24368;52.156;20.788;2023-04-15T11:28:42;99722.30;;;10.62;100.00
38612;BME280;24368;52.156;20.788;2023-04-15T11:33:57;99726.13;;;10.72;100.00
38612;BME280;24368;52.156;20.788;2023-04-15T11:38:59;99725.27;;;10.75;100.00
38612;BME280;24368;52.156;20.788;2023-04-15T11:44:00;99730.72;;;10.72;100.00
38612;BME280;24368;52.156;20.788;2023-04-15T11:49:02;99729.91;;;10.89;100.00
38612;BME280;24368;52.156;20.788;2023-04-15T11:54:04;99733.98;;;10.97;100.00
38612;BME280;24368;52.156;20.788;2023-04-15T11:59:06;99734.45;;;11.03;100.00
38612;BME280;24368;52.156;20.788;2023-04-15T12:04:15;99736.60;;;11.00;100.00
38612;BME280;24368;52.156;20.788;2023-04-15T12:09:20;99743.29;;;10.97;100.00
38612;BME280;24368;52.156;20.788;2023-04-15T12:14:31;99748.95;;;10.98;100.00
38612;BME280;24368;52.156;20.788;2023-04-15T12:19:38;99751.87;;;11.00;100.00
38612;BME280;24368;52.156;20.788;2023-04-15T12:24:41;99748.28;;;10.96;100.00
38612;BME280;24368;52.156;20.788;2023-04-15T12:30:04;99756.00;;;10.79;100.00
38612;BME280;24368;52.156;20.788;2023-04-15T12:35:06;99764.11;;;10.79;100.00
38612;BME280;24368;52.156;20.788;2023-04-15T12:40:09;99770.98;;;10.89;100.00
38612;BME280;24368;52.156;20.788;2023-04-15T12:45:11;99778.30;;;10.85;100.00
38612;BME280;24368;52.156;20.788;2023-04-15T12:50:12;99777.44;;;10.97;100.00
38612;BME280;24368;52.156;20.788;2023-04-15T12:55:13;99775.72;;;11.11;100.00
38612;BME280;24368;52.156;20.788;2023-04-15T13:00:14;99777.05;;;11.45;100.00
38612;BME280;24368;52.156;20.788;2023-04-15T13:05:16;99779.14;;;11.90;100.00
38612;BME280;24368;52.156;20.788;2023-04-15T13:10:17;99783.64;;;11.82;100.00
38612;BME280;24368;52.156;20.788;2023-04-15T13:15:19;99784.12;;;11.94;100.00
38612;BME280;24368;52.156;20.788;2023-04-15T13:20:22;99778.69;;;12.65;100.00
38612;BME280;24368;52.156;20.788;2023-04-15T13:25:24;99785.88;;;12.73;100.00
38612;BME280;24368;52.156;20.788;2023-04-15T13:30:26;99791.21;;;12.64;100.00
38612;BME280;24368;52.156;20.788;2023-04-15T13:35:28;99803.84;;;13.00;100.00
38612;BME280;24368;52.156;20.788;2023-04-15T13:40:29;99805.67;;;12.82;100.00
38612;BME280;24368;52.156;20.788;2023-04-15T13:45:30;99804.80;;;13.14;100.00
38612;BME280;24368;52.156;20.788;2023-04-15T13:50:40;99809.12;;;13.20;100.00
38612;BME280;24368;52.156;20.788;2023-04-15T13:55:45;99815.66;;;12.35;100.00
38612;BME280;24368;52.156;20.788;2023-04-15T14:00:46;99821.27;;;12.11;100.00
38612;BME280;24368;52.156;20.788;2023-04-15T14:05:47;99822.14;;;12.08;100.00
38612;BME280;24368;52.156;20.788;2023-04-15T14:10:55;99822.51;;;12.23;100.00
38612;BME280;24368;52.156;20.788;2023-04-15T14:15:57;99819.13;;;12.52;100.00
38612;BME280;24368;52.156;20.788;2023-04-15T14:20:59;99823.09;;;12.84;100.00
38612;BME280;24368;52.156;20.788;2023-04-15T14:26:04;99835.44;;;12.86;100.00
38612;BME280;24368;52.156;20.788;2023-04-15T14:31:05;99842.43;;;12.86;100.00
38612;BME280;24368;52.156;20.788;2023-04-15T14:36:08;99834.14;;;12.92;100.00
38612;BME280;24368;52.156;20.788;2023-04-15T14:41:09;99833.19;;;12.97;100.00
38612;BME280;24368;52.156;20.788;2023-04-15T14:46:10;99836.70;;;12.88;100.00
38612;BME280;24368;52.156;20.788;2023-04-15T14:51:12;99830.23;;;12.87;100.00
38612;BME280;24368;52.156;20.788;2023-04-15T14:56:13;99835.81;;;13.41;100.00
38612;BME280;24368;52.156;20.788;2023-04-15T15:01:14;99836.85;;;13.66;100.00
38612;BME280;24368;52.156;20.788;2023-04-15T15:06:16;99839.17;;;14.17;99.84
38612;BME280;24368;52.156;20.788;2023-04-15T15:11:17;99848.41;;;15.20;97.08
38612;BME280;24368;52.156;20.788;2023-04-15T15:16:18;99857.45;;;15.40;93.62
38612;BME280;24368;52.156;20.788;2023-04-15T15:21:19;99866.52;;;14.51;96.35
38612;BME280;24368;52.156;20.788;2023-04-15T15:26:21;99871.64;;;13.65;100.00
38612;BME280;24368;52.156;20.788;2023-04-15T15:31:22;99868.52;;;13.14;100.00
38612;BME280;24368;52.156;20.788;2023-04-15T15:36:24;99869.42;;;12.91;100.00
38612;BME280;24368;52.156;20.788;2023-04-15T15:41:27;99866.67;;;12.55;100.00
38612;BME280;24368;52.156;20.788;2023-04-15T15:46:28;99866.05;;;12.25;100.00
38612;BME280;24368;52.156;20.788;2023-04-15T15:51:31;99868.60;;;12.31;100.00
38612;BME280;24368;52.156;20.788;2023-04-15T15:56:32;99870.10;;;13.04;100.00
38612;BME280;24368;52.156;20.788;2023-04-15T16:01:35;99871.83;;;13.56;100.00
38612;BME280;24368;52.156;20.788;2023-04-15T16:06:36;99874.48;;;13.44;100.00
38612;BME280;24368;52.156;20.788;2023-04-15T16:11:38;99883.54;;;13.10;100.00
38612;BME280;24368;52.156;20.788;2023-04-15T16:16:39;99892.06;;;13.13;100.00
38612;BME280;24368;52.156;20.788;2023-04-15T16:21:41;99894.91;;;13.20;100.00
38612;BME280;24368;52.156;20.788;2023-04-15T16:26:43;99901.20;;;13.04;100.00
38612;BME280;24368;52.156;20.788;2023-04-15T16:31:55;99914.73;;;12.35;100.00
38612;BME280;24368;52.156;20.788;2023-04-15T16:36:56;99914.04;;;12.15;100.00
38612;BME280;24368;52.156;20.788;2023-04-15T16:41:58;99922.77;;;12.56;100.00
38612;BME280;24368;52.156;20.788;2023-04-15T16:46:59;99931.58;;;12.61;100.00
38612;BME280;24368;52.156;20.788;2023-04-15T16:52:02;99937.92;;;12.50;100.00
38612;BME280;24368;52.156;20.788;2023-04-15T16:57:04;99943.11;;;12.41;100.00
38612;BME280;24368;52.156;20.788;2023-04-15T17:02:08;99952.83;;;12.18;100.00
38612;BME280;24368;52.156;20.788;2023-04-15T17:07:10;99961.02;;;11.72;100.00
38612;BME280;24368;52.156;20.788;2023-04-15T17:12:12;99968.14;;;11.47;100.00
38612;BME280;24368;52.156;20.788;2023-04-15T17:17:14;99972.23;;;11.31;100.00
38612;BME280;24368;52.156;20.788;2023-04-15T17:22:16;99969.91;;;11.19;100.00
38612;BME280;24368;52.156;20.788;2023-04-15T17:27:18;99980.73;;;11.07;100.00
38612;BME280;24368;52.156;20.788;2023-04-15T17:32:19;99980.07;;;10.88;100.00
38612;BME280;24368;52.156;20.788;2023-04-15T17:37:22;99980.46;;;10.78;100.00
38612;BME280;24368;52.156;20.788;2023-04-15T17:42:23;99980.69;;;10.74;100.00
38612;BME280;24368;52.156;20.788;2023-04-15T17:47:26;99986.54;;;10.76;100.00
38612;BME280;24368;52.156;20.788;2023-04-15T17:52:28;100005.06;;;10.67;100.00
38612;BME280;24368;52.156;20.788;2023-04-15T17:57:29;100019.30;;;10.63;100.00
38612;BME280;24368;52.156;20.788;2023-04-15T18:02:30;100032.80;;;10.60;100.00
38612;BME280;24368;52.156;20.788;2023-04-15T18:07:32;100040.44;;;10.61;100.00
38612;BME280;24368;52.156;20.788;2023-04-15T18:12:33;100043.42;;;10.63;100.00
38612;BME280;24368;52.156;20.788;2023-04-15T18:17:35;100058.02;;;10.63;100.00
38612;BME280;24368;52.156;20.788;2023-04-15T18:22:36;100064.48;;;10.57;100.00
38612;BME280;24368;52.156;20.788;2023-04-15T18:27:37;100064.56;;;10.43;100.00
38612;BME280;24368;52.156;20.788;2023-04-15T18:32:40;100076.52;;;10.33;100.00
38612;BME280;24368;52.156;20.788;2023-04-15T18:37:41;100078.45;;;10.29;100.00
38612;BME280;24368;52.156;20.788;2023-04-15T18:42:43;100084.22;;;10.28;100.00
38612;BME280;24368;52.156;20.788;2023-04-15T18:47:45;100079.01;;;10.27;100.00
38612;BME280;24368;52.156;20.788;2023-04-15T18:52:46;100086.80;;;10.20;100.00
38612;BME280;24368;52.156;20.788;2023-04-15T18:57:50;100094.16;;;10.20;100.00
38612;BME280;24368;52.156;20.788;2023-04-15T19:02:52;100100.52;;;10.17;100.00
38612;BME280;24368;52.156;20.788;2023-04-15T19:07:54;100103.46;;;10.19;100.00
38612;BME280;24368;52.156;20.788;2023-04-15T19:12:56;100111.14;;;10.11;100.00
38612;BME280;24368;52.156;20.788;2023-04-15T19:17:57;100114.79;;;10.01;100.00
38612;BME280;24368;52.156;20.788;2023-04-15T19:22:58;100118.64;;;9.89;100.00
38612;BME280;24368;52.156;20.788;2023-04-15T19:28:03;100127.06;;;9.91;100.00
38612;BME280;24368;52.156;20.788;2023-04-15T19:33:05;100129.78;;;9.95;100.00
38612;BME280;24368;52.156;20.788;2023-04-15T19:38:07;100137.02;;;10.04;100.00
38612;BME280;24368;52.156;20.788;2023-04-15T19:43:08;100144.02;;;10.00;100.00
38612;BME280;24368;52.156;20.788;2023-04-15T19:48:10;100152.87;;;9.97;100.00
38612;BME280;24368;52.156;20.788;2023-04-15T19:53:11;100155.80;;;9.85;100.00
38612;BME280;24368;52.156;20.788;2023-04-15T19:58:13;100161.27;;;9.81;100.00
38612;BME280;24368;52.156;20.788;2023-04-15T20:03:14;100168.44;;;9.84;100.00
38612;BME280;24368;52.156;20.788;2023-04-15T20:08:16;100167.06;;;9.87;100.00
38612;BME280;24368;52.156;20.788;2023-04-15T20:13:17;100161.05;;;9.82;100.00
38612;BME280;24368;52.156;20.788;2023-04-15T20:18:18;100163.61;;;9.67;100.00
38612;BME280;24368;52.156;20.788;2023-04-15T20:23:20;100170.09;;;9.56;100.00
38612;BME280;24368;52.156;20.788;2023-04-15T20:28:23;100169.49;;;9.53;100.00
38612;BME280;24368;52.156;20.788;2023-04-15T20:33:27;100170.19;;;9.53;100.00
38612;BME280;24368;52.156;20.788;2023-04-15T20:38:29;100164.51;;;9.60;100.00
38612;BME280;24368;52.156;20.788;2023-04-15T20:43:30;100162.78;;;9.63;100.00
38612;BME280;24368;52.156;20.788;2023-04-15T20:48:32;100165.13;;;9.59;100.00
38612;BME280;24368;52.156;20.788;2023-04-15T20:53:33;100167.23;;;9.43;100.00
38612;BME280;24368;52.156;20.788;2023-04-15T20:58:37;100176.78;;;9.42;100.00
38612;BME280;24368;52.156;20.788;2023-04-15T21:03:38;100182.39;;;9.39;100.00
38612;BME280;24368;52.156;20.788;2023-04-15T21:08:40;100182.70;;;9.43;100.00
38612;BME280;24368;52.156;20.788;2023-04-15T21:13:41;100186.54;;;9.45;100.00
38612;BME280;24368;52.156;20.788;2023-04-15T21:18:42;100189.92;;;9.41;100.00
38612;BME280;24368;52.156;20.788;2023-04-15T21:23:43;100192.54;;;9.36;100.00
38612;BME280;24368;52.156;20.788;2023-04-15T21:28:46;100197.52;;;9.32;100.00
38612;BME280;24368;52.156;20.788;2023-04-15T21:33:49;100199.48;;;9.35;100.00
38612;BME280;24368;52.156;20.788;2023-04-15T21:38:51;100199.05;;;9.37;100.00
38612;BME280;24368;52.156;20.788;2023-04-15T21:43:52;100200.59;;;9.36;100.00
38612;BME280;24368;52.156;20.788;2023-04-15T21:48:54;100199.63;;;9.25;100.00
38612;BME280;24368;52.156;20.788;2023-04-15T21:53:55;100202.35;;;9.17;100.00
38612;BME280;24368;52.156;20.788;2023-04-15T21:58:56;100206.45;;;9.14;100.00
38612;BME280;24368;52.156;20.788;2023-04-15T22:03:58;100214.81;;;9.15;100.00
38612;BME280;24368;52.156;20.788;2023-04-15T22:08:59;100213.98;;;9.18;100.00
38612;BME280;24368;52.156;20.788;2023-04-15T22:14:00;100220.84;;;9.09;100.00
38612;BME280;24368;52.156;20.788;2023-04-15T22:19:02;100223.40;;;9.08;100.00
38612;BME280;24368;52.156;20.788;2023-04-15T22:24:03;100235.16;;;8.95;100.00
38612;BME280;24368;52.156;20.788;2023-04-15T22:29:05;100239.46;;;9.03;100.00
38612;BME280;24368;52.156;20.788;2023-04-15T22:34:06;100241.64;;;9.16;100.00
38612;BME280;24368;52.156;20.788;2023-04-15T22:39:08;100239.50;;;9.16;100.00
38612;BME280;24368;52.156;20.788;2023-04-15T22:44:09;100246.41;;;9.12;100.00
38612;BME280;24368;52.156;20.788;2023-04-15T22:49:10;100255.70;;;9.04;100.00
38612;BME280;24368;52.156;20.788;2023-04-15T22:54:12;100258.35;;;9.01;100.00
38612;BME280;24368;52.156;20.788;2023-04-15T22:59:14;100259.07;;;9.00;100.00
38612;BME280;24368;52.156;20.788;2023-04-15T23:04:15;100261.66;;;9.08;100.00
38612;BME280;24368;52.156;20.788;2023-04-15T23:09:17;100262.69;;;9.08;100.00
38612;BME280;24368;52.156;20.788;2023-04-15T23:14:18;100265.17;;;9.06;100.00
38612;BME280;24368;52.156;20.788;2023-04-15T23:19:22;100269.29;;;8.98;100.00
38612;BME280;24368;52.156;20.788;2023-04-15T23:24:23;100266.86;;;8.94;100.00
38612;BME280;24368;52.156;20.788;2023-04-15T23:29:24;100265.27;;;9.00;100.00
38612;BME280;24368;52.156;20.788;2023-04-15T23:34:25;100268.23;;;9.02;100.00
38612;BME280;24368;52.156;20.788;2023-04-15T23:39:27;100269.34;;;9.05;100.00
38612;BME280;24368;52.156;20.788;2023-04-15T23:44:30;100266.60;;;9.00;100.00
38612;BME280;24368;52.156;20.788;2023-04-15T23:49:31;100266.28;;;8.95;100.00
38612;BME280;24368;52.156;20.788;2023-04-15T23:54:32;100267.80;;;8.90;100.00
38612;BME280;24368;52.156;20.788;2023-04-15T23:59:33;100268.68;;;8.92;100.00
